createdAt,value
2018-06-08T00:01:27.269Z,15.27
2018-06-08T00:03:54.995Z,15.28
2018-06-08T00:06:22.678Z,15.19
2018-06-08T00:08:50.406Z,15.35
2018-06-08T00:11:18.114Z,15.34
2018-06-08T00:13:45.769Z,15.44
2018-06-08T00:16:13.487Z,15.35
2018-06-08T00:18:41.188Z,15.08
2018-06-08T00:21:09.001Z,15.01
2018-06-08T00:23:36.679Z,15.16
2018-06-08T00:26:04.571Z,15.00
2018-06-08T00:28:32.247Z,14.94
2018-06-08T00:30:59.939Z,14.91
2018-06-08T00:33:27.641Z,14.89
2018-06-08T00:35:55.437Z,14.91
2018-06-08T00:38:23.101Z,15.00
2018-06-08T00:40:50.841Z,15.00
2018-06-08T00:43:18.695Z,14.94
2018-06-08T00:45:46.383Z,15.00
2018-06-08T00:48:14.062Z,14.94
2018-06-08T00:50:41.768Z,14.94
2018-06-08T00:53:09.451Z,14.80
2018-06-08T00:55:37.172Z,14.73
2018-06-08T00:58:04.895Z,14.72
2018-06-08T01:00:32.639Z,14.66
2018-06-08T01:03:00.347Z,14.61
2018-06-08T01:05:28.080Z,14.64
2018-06-08T01:07:55.758Z,14.57
2018-06-08T01:10:23.602Z,14.59
2018-06-08T01:12:51.330Z,14.56
2018-06-08T01:15:18.998Z,14.62
2018-06-08T01:17:46.790Z,14.92
2018-06-08T01:20:14.503Z,15.09
2018-06-08T01:22:42.249Z,14.96
2018-06-08T01:25:09.931Z,14.67
2018-06-08T01:27:37.598Z,14.53
2018-06-08T01:30:05.294Z,14.57
2018-06-08T01:32:33.027Z,14.67
2018-06-08T01:35:01.036Z,14.64
2018-06-08T01:37:29.014Z,14.58
2018-06-08T01:39:56.705Z,14.61
2018-06-08T01:42:24.430Z,14.65
2018-06-08T01:44:52.218Z,14.67
2018-06-08T01:47:19.931Z,14.38
2018-06-08T01:49:47.631Z,14.42
2018-06-08T01:52:15.375Z,14.52
2018-06-08T01:54:43.099Z,14.44
2018-06-08T01:57:10.782Z,14.41
2018-06-08T01:59:38.582Z,14.34
2018-06-08T02:02:07.209Z,14.22
2018-06-08T02:04:35.186Z,14.30
2018-06-08T02:07:02.861Z,14.44
2018-06-08T02:09:30.624Z,14.33
2018-06-08T02:11:58.347Z,14.25
2018-06-08T02:14:26.984Z,14.17
2018-06-08T02:16:54.680Z,14.22
2018-06-08T02:19:22.711Z,14.08
2018-06-08T02:21:50.486Z,13.99
2018-06-08T02:24:18.226Z,14.11
2018-06-08T02:26:45.919Z,13.99
2018-06-08T02:29:13.595Z,14.18
2018-06-08T02:31:41.242Z,14.17
2018-06-08T02:34:08.934Z,14.14
2018-06-08T02:36:36.669Z,14.08
2018-06-08T02:39:06.045Z,14.09
2018-06-08T02:41:33.710Z,14.03
2018-06-08T02:44:01.412Z,14.01
2018-06-08T02:46:29.088Z,13.94
2018-06-08T02:48:56.821Z,13.94
2018-06-08T02:51:24.476Z,14.00
2018-06-08T02:53:52.198Z,14.02
2018-06-08T02:56:20.310Z,13.96
2018-06-08T02:58:47.955Z,13.85
2018-06-08T03:01:15.606Z,13.85
2018-06-08T03:03:43.468Z,13.90
2018-06-08T03:06:11.203Z,13.92
2018-06-08T03:08:38.890Z,13.98
2018-06-08T03:11:06.534Z,14.10
2018-06-08T03:13:34.247Z,14.36
2018-06-08T03:16:01.896Z,14.38
2018-06-08T03:18:29.588Z,14.40
2018-06-08T03:20:57.330Z,14.35
2018-06-08T03:23:25.004Z,14.25
2018-06-08T03:25:52.694Z,14.28
2018-06-08T03:28:20.379Z,14.31
2018-06-08T03:30:48.299Z,14.34
2018-06-08T03:33:15.995Z,14.38
2018-06-08T03:35:43.710Z,14.52
2018-06-08T03:38:11.414Z,14.51
2018-06-08T03:40:39.109Z,14.52
2018-06-08T03:43:06.789Z,14.51
2018-06-08T03:45:34.490Z,14.58
2018-06-08T03:48:02.174Z,14.57
2018-06-08T03:50:29.868Z,14.60
2018-06-08T03:52:57.604Z,14.63
2018-06-08T03:55:25.319Z,14.81
2018-06-08T03:57:53.046Z,14.92
2018-06-08T04:00:20.735Z,14.99
2018-06-08T04:02:48.456Z,15.02
2018-06-08T04:05:16.154Z,15.03
2018-06-08T04:07:43.862Z,15.00
2018-06-08T04:10:11.650Z,15.12
2018-06-08T04:12:39.383Z,14.99
2018-06-08T04:15:07.115Z,14.94
2018-06-08T04:17:34.810Z,14.98
2018-06-08T04:20:02.527Z,15.02
2018-06-08T04:22:30.215Z,15.37
2018-06-08T04:24:57.891Z,15.46
2018-06-08T04:27:25.566Z,15.37
2018-06-08T04:29:53.895Z,15.46
2018-06-08T04:32:21.538Z,15.34
2018-06-08T04:34:49.236Z,15.42
2018-06-08T04:37:16.969Z,15.62
2018-06-08T04:39:44.667Z,15.86
2018-06-08T04:42:12.495Z,16.08
2018-06-08T04:44:40.205Z,16.17
2018-06-08T04:47:07.920Z,16.15
2018-06-08T04:49:35.593Z,16.26
2018-06-08T04:52:03.275Z,16.33
2018-06-08T04:54:30.991Z,16.55
2018-06-08T04:56:58.684Z,16.44
2018-06-08T04:59:26.404Z,16.58
2018-06-08T05:01:54.190Z,16.67
2018-06-08T05:04:21.881Z,16.58
2018-06-08T05:06:49.525Z,16.74
2018-06-08T05:09:17.236Z,16.78
2018-06-08T05:11:45.080Z,16.86
2018-06-08T05:14:12.801Z,16.95
2018-06-08T05:16:40.449Z,17.32
2018-06-08T05:19:08.122Z,17.36
2018-06-08T05:21:35.806Z,17.58
2018-06-08T05:24:03.479Z,17.57
2018-06-08T05:26:31.162Z,17.27
2018-06-08T05:28:58.902Z,17.21
2018-06-08T05:31:26.627Z,17.35
2018-06-08T05:33:54.342Z,17.46
2018-06-08T05:36:21.998Z,17.77
2018-06-08T05:38:49.746Z,18.00
2018-06-08T05:41:17.430Z,18.28
2018-06-08T05:43:45.118Z,18.68
2018-06-08T05:46:12.815Z,19.03
2018-06-08T05:48:40.483Z,19.42
2018-06-08T05:51:08.184Z,19.73
2018-06-08T05:53:35.972Z,19.58
2018-06-08T05:56:03.578Z,19.48
2018-06-08T05:58:31.298Z,19.72
2018-06-08T06:00:58.988Z,19.73
2018-06-08T06:03:26.716Z,20.21
2018-06-08T06:05:54.416Z,20.34
2018-06-08T06:08:22.099Z,20.90
2018-06-08T06:10:49.740Z,21.04
2018-06-08T06:13:17.503Z,21.13
2018-06-08T06:15:45.178Z,21.15
2018-06-08T06:18:13.603Z,21.41
2018-06-08T06:20:41.383Z,21.66
2018-06-08T06:23:09.111Z,21.78
2018-06-08T06:25:36.812Z,21.71
2018-06-08T06:28:04.570Z,21.89
2018-06-08T06:30:32.291Z,22.12
2018-06-08T06:32:59.983Z,22.00
2018-06-08T06:35:27.704Z,22.24
2018-06-08T06:37:55.410Z,22.37
2018-06-08T06:40:23.094Z,22.56
2018-06-08T06:42:50.787Z,22.91
2018-06-08T06:45:18.462Z,23.26
2018-06-08T06:47:46.138Z,23.64
2018-06-08T06:50:13.860Z,24.14
2018-06-08T06:52:41.522Z,24.32
2018-06-08T06:55:09.247Z,24.90
2018-06-08T06:57:36.951Z,25.10
2018-06-08T07:00:04.710Z,24.98
2018-06-08T07:02:32.534Z,25.23
2018-06-08T07:05:00.252Z,25.79
2018-06-08T07:07:27.906Z,25.86
2018-06-08T07:09:55.527Z,26.03
2018-06-08T07:12:23.226Z,26.21
2018-06-08T07:14:50.930Z,26.19
2018-06-08T07:17:18.686Z,26.32
2018-06-08T07:19:46.377Z,26.08
2018-06-08T07:22:14.107Z,26.38
2018-06-08T07:24:41.823Z,26.90
2018-06-08T07:27:09.486Z,26.68
2018-06-08T07:29:37.187Z,26.55
2018-06-08T07:32:04.922Z,26.44
2018-06-08T07:34:32.599Z,26.76
2018-06-08T07:37:00.304Z,26.78
2018-06-08T07:39:27.969Z,27.24
2018-06-08T07:41:55.677Z,27.40
2018-06-08T07:44:23.401Z,27.70
2018-06-08T07:46:51.212Z,27.95
2018-06-08T07:49:18.864Z,28.04
2018-06-08T07:51:46.572Z,28.16
2018-06-08T07:54:14.278Z,28.50
2018-06-08T07:56:41.971Z,28.65
2018-06-08T07:59:09.655Z,28.73
2018-06-08T08:01:37.335Z,28.51
2018-06-08T08:04:04.996Z,28.52
2018-06-08T08:06:32.711Z,28.64
2018-06-08T08:09:00.399Z,28.93
2018-06-08T08:11:28.210Z,29.02
2018-06-08T08:13:55.924Z,28.96
2018-06-08T08:16:23.585Z,29.32
2018-06-08T08:18:51.223Z,29.46
2018-06-08T08:21:18.900Z,29.43
2018-06-08T08:23:47.342Z,30.04
2018-06-08T08:26:15.035Z,30.22
2018-06-08T08:28:42.671Z,30.03
2018-06-08T08:31:10.379Z,30.60
2018-06-08T08:33:38.052Z,30.82
2018-06-08T08:36:05.726Z,30.42
2018-06-08T08:38:33.396Z,30.64
2018-06-08T08:41:01.102Z,30.78
2018-06-08T08:43:28.751Z,30.95
2018-06-08T08:45:56.503Z,31.16
2018-06-08T08:48:24.177Z,31.66
2018-06-08T08:50:51.870Z,31.85
2018-06-08T08:53:19.552Z,31.06
2018-06-08T08:55:47.175Z,30.85
2018-06-08T08:58:14.830Z,30.73
2018-06-08T09:00:42.458Z,31.29
2018-06-08T09:03:10.134Z,31.33
2018-06-08T09:05:37.835Z,31.51
2018-06-08T09:08:05.522Z,31.70
2018-06-08T09:10:33.220Z,31.82
2018-06-08T09:13:01.207Z,31.33
2018-06-08T09:15:28.876Z,31.49
2018-06-08T09:17:56.536Z,31.77
2018-06-08T09:20:24.218Z,32.19
2018-06-08T09:22:51.931Z,31.98
2018-06-08T09:25:19.607Z,32.12
2018-06-08T09:27:47.279Z,31.95
2018-06-08T09:30:14.894Z,31.14
2018-06-08T09:32:42.529Z,30.83
2018-06-08T09:35:10.203Z,31.48
2018-06-08T09:37:37.867Z,31.93
2018-06-08T09:40:05.599Z,32.06
2018-06-08T09:42:33.291Z,32.33
2018-06-08T09:45:00.977Z,32.45
2018-06-08T09:47:28.628Z,33.08
2018-06-08T09:49:56.307Z,32.80
2018-06-08T09:52:23.998Z,32.51
2018-06-08T09:54:51.733Z,32.53
2018-06-08T09:57:19.390Z,32.83
2018-06-08T09:59:47.052Z,32.36
2018-06-08T10:02:14.717Z,32.51
2018-06-08T10:04:42.402Z,32.30
2018-06-08T10:07:10.120Z,32.72
2018-06-08T10:09:37.782Z,33.02
2018-06-08T10:12:05.467Z,32.84
2018-06-08T10:14:33.123Z,32.95
2018-06-08T10:17:00.792Z,33.13
2018-06-08T10:19:28.447Z,33.39
2018-06-08T10:21:56.099Z,32.84
2018-06-08T10:24:23.790Z,33.07
2018-06-08T10:26:51.426Z,32.93
2018-06-08T10:29:19.095Z,33.05
2018-06-08T10:31:46.769Z,32.32
2018-06-08T10:34:14.567Z,31.87
2018-06-08T10:36:42.241Z,31.98
2018-06-08T10:39:09.943Z,32.50
2018-06-08T10:41:37.663Z,32.89
2018-06-08T10:44:05.370Z,33.22
2018-06-08T10:46:33.133Z,32.94
2018-06-08T10:49:00.796Z,33.28
2018-06-08T10:51:28.482Z,33.15
2018-06-08T10:53:56.200Z,32.16
2018-06-08T10:56:23.838Z,31.57
2018-06-08T10:58:51.516Z,30.96
2018-06-08T11:01:19.164Z,30.34
2018-06-08T11:03:46.860Z,29.92
2018-06-08T11:06:14.532Z,30.10
2018-06-08T11:08:42.229Z,30.00
2018-06-08T11:11:09.864Z,29.34
2018-06-08T11:13:37.534Z,29.23
2018-06-08T11:16:05.183Z,29.11
2018-06-08T11:18:32.851Z,28.58
2018-06-08T11:21:00.486Z,28.27
2018-06-08T11:23:28.196Z,28.19
2018-06-08T11:25:55.811Z,28.29
2018-06-08T11:28:23.506Z,28.12
2018-06-08T11:30:51.196Z,28.08
2018-06-08T11:33:18.895Z,28.17
2018-06-08T11:35:46.604Z,28.22
2018-06-08T11:38:14.287Z,28.35
2018-06-08T11:40:41.978Z,28.50
2018-06-08T11:43:09.652Z,28.53
2018-06-08T11:45:37.298Z,28.75
2018-06-08T11:48:04.993Z,28.59
2018-06-08T11:50:32.638Z,28.06
2018-06-08T11:53:00.420Z,27.92
2018-06-08T11:55:27.967Z,27.94
2018-06-08T11:57:55.653Z,27.83
2018-06-08T12:00:23.326Z,27.69
2018-06-08T12:02:50.998Z,27.52
2018-06-08T12:05:18.628Z,27.26
2018-06-08T12:07:46.287Z,27.33
2018-06-08T12:10:14.000Z,27.16
2018-06-08T12:12:41.657Z,27.35
2018-06-08T12:15:09.351Z,27.37
2018-06-08T12:17:37.032Z,27.21
2018-06-08T12:20:04.771Z,27.24
2018-06-08T12:22:32.508Z,27.39
2018-06-08T12:25:00.205Z,27.76
2018-06-08T12:27:27.895Z,27.40
2018-06-08T12:29:55.638Z,27.45
2018-06-08T12:32:23.288Z,27.31
2018-06-08T12:34:51.023Z,27.27
2018-06-08T12:37:18.704Z,26.72
2018-06-08T12:39:46.404Z,26.33
2018-06-08T12:42:14.484Z,26.07
2018-06-08T12:44:42.165Z,25.74
2018-06-08T12:47:09.840Z,25.48
2018-06-08T12:49:37.559Z,24.94
2018-06-08T12:52:05.258Z,24.72
2018-06-08T12:54:32.950Z,24.71
2018-06-08T12:57:00.660Z,24.85
2018-06-08T12:59:28.376Z,24.88
2018-06-08T13:01:56.137Z,24.79
2018-06-08T13:04:23.844Z,24.75
2018-06-08T13:06:51.506Z,24.55
2018-06-08T13:09:19.258Z,24.42
2018-06-08T13:11:46.975Z,24.53
2018-06-08T13:14:14.711Z,24.60
2018-06-08T13:16:42.446Z,24.57
2018-06-08T13:19:10.195Z,24.68
2018-06-08T13:21:37.901Z,24.67
2018-06-08T13:24:05.641Z,24.65
2018-06-08T13:26:33.367Z,24.54
2018-06-08T13:29:01.097Z,24.62
2018-06-08T13:31:28.779Z,24.75
2018-06-08T13:33:56.554Z,24.96
2018-06-08T13:36:24.258Z,25.08
2018-06-08T13:38:51.966Z,25.37
2018-06-08T13:41:19.680Z,25.36
2018-06-08T13:43:47.405Z,25.47
2018-06-08T13:46:20.687Z,25.12
2018-06-08T13:48:48.461Z,24.98
2018-06-08T13:51:16.198Z,24.76
2018-06-08T13:53:43.920Z,24.73
2018-06-08T13:56:11.637Z,24.83
2018-06-08T13:58:39.361Z,24.81
2018-06-08T14:01:07.072Z,24.93
2018-06-08T14:03:34.773Z,25.12
2018-06-08T14:06:02.531Z,25.05
2018-06-08T14:08:30.265Z,25.23
2018-06-08T14:10:58.163Z,25.27
2018-06-08T14:13:25.880Z,25.34
2018-06-08T14:15:53.576Z,25.72
2018-06-08T14:18:21.344Z,25.77
2018-06-08T14:20:51.755Z,25.88
2018-06-08T14:23:19.494Z,25.77
2018-06-08T14:25:47.215Z,25.73
2018-06-08T14:28:14.966Z,25.56
2018-06-08T14:30:42.638Z,25.74
2018-06-08T14:33:10.358Z,25.89
2018-06-08T14:35:38.073Z,25.97
2018-06-08T14:38:05.793Z,26.04
2018-06-08T14:40:33.541Z,26.03
2018-06-08T14:43:01.243Z,26.00
2018-06-08T14:45:29.028Z,25.76
2018-06-08T14:47:56.683Z,25.94
2018-06-08T14:50:24.439Z,26.01
2018-06-08T14:52:52.101Z,25.86
2018-06-08T14:55:19.814Z,25.81
2018-06-08T14:57:48.090Z,25.95
2018-06-08T15:00:15.814Z,25.96
2018-06-08T15:02:43.502Z,25.77
2018-06-08T15:05:11.182Z,25.82
2018-06-08T15:07:38.922Z,25.63
2018-06-08T15:10:06.602Z,25.60
2018-06-08T15:12:34.304Z,25.58
2018-06-08T15:15:02.002Z,25.30
2018-06-08T15:17:29.733Z,25.09
2018-06-08T15:19:57.431Z,25.11
2018-06-08T15:22:25.154Z,24.97
2018-06-08T15:24:52.877Z,24.97
2018-06-08T15:27:20.591Z,24.98
2018-06-08T15:29:48.287Z,24.98
2018-06-08T15:32:16.089Z,25.01
2018-06-08T15:34:43.780Z,25.03
2018-06-08T15:37:11.514Z,25.08
2018-06-08T15:39:39.313Z,25.01
2018-06-08T15:42:07.018Z,24.89
2018-06-08T15:44:35.093Z,24.80
2018-06-08T15:47:02.842Z,24.63
2018-06-08T15:49:30.653Z,24.30
2018-06-08T15:51:58.366Z,24.30
2018-06-08T15:54:26.152Z,24.29
2018-06-08T15:56:53.858Z,24.39
2018-06-08T15:59:21.576Z,24.29
2018-06-08T16:01:49.283Z,24.26
2018-06-08T16:04:17.030Z,24.29
2018-06-08T16:06:44.714Z,24.32
2018-06-08T16:09:12.411Z,24.10
2018-06-08T16:11:40.229Z,24.00
2018-06-08T16:14:07.936Z,24.20
2018-06-08T16:16:35.699Z,24.19
2018-06-08T16:19:03.470Z,24.24
2018-06-08T16:21:31.201Z,24.08
2018-06-08T16:23:58.894Z,24.08
2018-06-08T16:26:26.643Z,24.13
2018-06-08T16:28:54.372Z,24.20
2018-06-08T16:31:22.094Z,24.22
2018-06-08T16:33:49.841Z,24.47
2018-06-08T16:36:17.585Z,24.60
2018-06-08T16:38:45.404Z,24.80
2018-06-08T16:41:13.129Z,24.65
2018-06-08T16:43:40.846Z,24.72
2018-06-08T16:46:08.588Z,24.73
2018-06-08T16:48:36.353Z,24.60
2018-06-08T16:51:04.140Z,24.50
2018-06-08T16:53:31.846Z,24.27
2018-06-08T16:55:59.540Z,24.16
2018-06-08T16:58:27.271Z,23.96
2018-06-08T17:00:55.071Z,23.86
2018-06-08T17:03:22.790Z,23.66
2018-06-08T17:05:50.494Z,23.26
2018-06-08T17:08:18.214Z,22.98
2018-06-08T17:10:45.898Z,22.82
2018-06-08T17:13:13.605Z,22.72
2018-06-08T17:15:41.363Z,22.71
2018-06-08T17:18:09.235Z,22.79
2018-06-08T17:20:37.058Z,22.89
2018-06-08T17:23:04.829Z,22.84
2018-06-08T17:25:32.578Z,22.78
2018-06-08T17:28:00.549Z,22.81
2018-06-08T17:30:28.306Z,22.75
2018-06-08T17:32:56.013Z,22.85
2018-06-08T17:35:23.712Z,22.72
2018-06-08T17:37:51.418Z,22.73
2018-06-08T17:40:19.134Z,22.74
2018-06-08T17:42:46.850Z,22.76
2018-06-08T17:45:14.559Z,22.55
2018-06-08T17:47:42.247Z,21.91
2018-06-08T17:50:10.003Z,21.23
2018-06-08T17:52:37.711Z,20.96
2018-06-08T17:55:05.438Z,20.81
2018-06-08T17:57:33.243Z,20.94
2018-06-08T18:00:00.992Z,20.85
2018-06-08T18:02:28.686Z,20.90
2018-06-08T18:04:56.400Z,20.95
2018-06-08T18:07:24.094Z,20.96
2018-06-08T18:09:51.801Z,21.06
2018-06-08T18:12:19.523Z,21.06
2018-06-08T18:14:47.398Z,21.03
2018-06-08T18:17:15.101Z,21.02
2018-06-08T18:19:42.804Z,20.83
2018-06-08T18:22:10.633Z,20.81
2018-06-08T18:24:38.254Z,20.58
2018-06-08T18:27:05.977Z,20.40
2018-06-08T18:29:33.697Z,20.15
2018-06-08T18:32:01.443Z,20.15
2018-06-08T18:34:29.170Z,20.09
2018-06-08T18:36:56.919Z,20.04
2018-06-08T18:39:24.602Z,19.80
2018-06-08T18:41:52.331Z,19.61
2018-06-08T18:44:20.036Z,19.48
2018-06-08T18:46:47.848Z,19.52
2018-06-08T18:49:15.595Z,19.41
2018-06-08T18:51:43.323Z,19.57
2018-06-08T18:54:11.105Z,19.35
2018-06-08T18:56:38.863Z,19.23
2018-06-08T18:59:06.632Z,19.12
2018-06-08T19:01:34.417Z,18.73
2018-06-08T19:04:02.120Z,18.84
2018-06-08T19:06:29.808Z,18.77
2018-06-08T19:08:57.535Z,18.80
2018-06-08T19:11:25.264Z,18.60
2018-06-08T19:13:53.963Z,18.31
2018-06-08T19:16:21.702Z,18.24
2018-06-08T19:18:49.396Z,18.29
2018-06-08T19:21:17.111Z,18.24
2018-06-08T19:23:44.811Z,18.05
2018-06-08T19:26:12.582Z,18.00
2018-06-08T19:28:40.343Z,18.05
2018-06-08T19:31:08.100Z,18.08
2018-06-08T19:33:35.866Z,17.97
2018-06-08T19:36:03.597Z,17.78
2018-06-08T19:38:31.323Z,17.52
2018-06-08T19:40:59.106Z,17.30
2018-06-08T19:43:26.862Z,17.18
2018-06-08T19:45:54.594Z,17.22
2018-06-08T19:48:22.342Z,17.25
2018-06-08T19:50:50.124Z,17.27
2018-06-08T19:53:17.874Z,17.27
2018-06-08T19:55:45.623Z,17.31
2018-06-08T19:58:13.332Z,17.31
2018-06-08T20:00:41.059Z,17.29
2018-06-08T20:03:08.804Z,17.25
2018-06-08T20:05:36.514Z,17.41
2018-06-08T20:08:04.212Z,17.40
2018-06-08T20:10:32.020Z,17.33
2018-06-08T20:12:59.944Z,17.20
2018-06-08T20:15:27.644Z,17.18
2018-06-08T20:17:55.421Z,17.35
2018-06-08T20:20:23.163Z,17.51
2018-06-08T20:22:50.886Z,17.45
2018-06-08T20:25:18.617Z,17.22
2018-06-08T20:27:46.466Z,17.16
2018-06-08T20:30:14.172Z,17.09
2018-06-08T20:32:41.936Z,17.07
2018-06-08T20:35:09.655Z,17.04
2018-06-08T20:37:37.463Z,17.11
2018-06-08T20:40:05.557Z,17.15
2018-06-08T20:42:33.340Z,17.23
2018-06-08T20:45:01.090Z,17.24
2018-06-08T20:47:28.900Z,17.15
2018-06-08T20:49:56.674Z,17.06
2018-06-08T20:52:24.385Z,17.01
2018-06-08T20:54:52.185Z,17.00
2018-06-08T20:57:23.907Z,16.96
2018-06-08T20:59:51.665Z,16.92
2018-06-08T21:02:19.801Z,16.93
2018-06-08T21:04:47.444Z,16.92
2018-06-08T21:07:15.217Z,16.95
2018-06-08T21:09:43.059Z,16.94
2018-06-08T21:12:10.899Z,16.95
2018-06-08T21:14:38.656Z,16.96
2018-06-08T21:17:06.466Z,16.94
2018-06-08T21:19:34.176Z,16.99
2018-06-08T21:22:01.919Z,17.04
2018-06-08T21:24:29.924Z,17.02
2018-06-08T21:26:57.770Z,17.10
2018-06-08T21:29:25.561Z,17.04
2018-06-08T21:31:53.425Z,17.06
2018-06-08T21:34:21.166Z,17.04
2018-06-08T21:36:48.936Z,17.03
2018-06-08T21:39:16.660Z,17.10
2018-06-08T21:41:44.411Z,17.13
2018-06-08T21:44:12.167Z,17.17
2018-06-08T21:46:40.006Z,17.22
2018-06-08T21:49:07.723Z,17.20
2018-06-08T21:51:35.529Z,17.19
2018-06-08T21:54:03.272Z,17.08
2018-06-08T21:56:31.002Z,17.10
2018-06-08T21:58:58.800Z,17.11
2018-06-08T22:01:26.556Z,17.03
2018-06-08T22:03:54.373Z,16.98
2018-06-08T22:06:22.151Z,16.87
2018-06-08T22:08:49.885Z,16.82
2018-06-08T22:11:17.701Z,16.92
2018-06-08T22:13:45.463Z,16.86
2018-06-08T22:16:13.206Z,16.87
2018-06-08T22:18:40.947Z,16.86
2018-06-08T22:21:08.661Z,16.92
2018-06-08T22:23:36.417Z,16.97
2018-06-08T22:26:04.147Z,16.91
2018-06-08T22:28:31.881Z,17.05
2018-06-08T22:30:59.652Z,17.13
2018-06-08T22:33:27.459Z,17.09
2018-06-08T22:35:55.239Z,17.06
2018-06-08T22:38:22.947Z,17.12
2018-06-08T22:40:50.701Z,17.11
2018-06-08T22:43:18.529Z,17.11
2018-06-08T22:45:46.303Z,17.15
2018-06-08T22:48:14.045Z,17.17
2018-06-08T22:50:41.803Z,17.11
2018-06-08T22:53:09.577Z,17.17
2018-06-08T22:55:37.325Z,17.27
2018-06-08T22:58:05.072Z,17.40
2018-06-08T23:00:32.805Z,17.18
2018-06-08T23:03:00.588Z,17.37
2018-06-08T23:05:28.367Z,17.22
2018-06-08T23:07:56.153Z,17.27
2018-06-08T23:10:23.904Z,17.25
2018-06-08T23:12:51.667Z,17.05
2018-06-08T23:15:19.439Z,16.92
2018-06-08T23:17:47.258Z,16.77
2018-06-08T23:20:14.991Z,16.79
2018-06-08T23:22:42.734Z,16.74
2018-06-08T23:25:10.467Z,16.80
2018-06-08T23:27:38.201Z,16.75
2018-06-08T23:30:05.946Z,16.91
2018-06-08T23:32:33.767Z,16.85
2018-06-08T23:35:01.530Z,16.91
2018-06-08T23:37:29.215Z,16.83
2018-06-08T23:39:56.891Z,16.87
2018-06-08T23:42:24.613Z,16.64
2018-06-08T23:44:52.286Z,16.37
2018-06-08T23:47:20.041Z,16.30
2018-06-08T23:49:47.713Z,16.23
2018-06-08T23:52:15.369Z,16.22
2018-06-08T23:54:43.160Z,16.32
2018-06-08T23:57:10.897Z,16.25
2018-06-08T23:59:38.598Z,16.09
